createdAt,value
2023-02-05T00:01:39.519Z,27.80
2023-02-05T00:04:07.345Z,27.38
2023-02-05T00:06:35.395Z,29.45
2023-02-05T00:09:03.243Z,26.98
2023-02-05T00:11:30.613Z,28.13
2023-02-05T00:13:57.617Z,31.10
2023-02-05T00:16:25.599Z,30.20
2023-02-05T00:18:53.391Z,30.70
2023-02-05T00:21:21.941Z,30.90
2023-02-05T00:23:49.272Z,30.95
2023-02-05T00:26:16.490Z,31.30
2023-02-05T00:28:44.288Z,30.05
2023-02-05T00:31:22.435Z,29.00
2023-02-05T00:33:50.594Z,29.20
2023-02-05T00:36:20.837Z,28.30
2023-02-05T00:38:48.102Z,28.52
2023-02-05T00:41:15.799Z,28.30
2023-02-05T00:43:43.374Z,28.88
2023-02-05T00:46:14.334Z,28.92
2023-02-05T00:48:44.313Z,27.52
2023-02-05T00:51:11.723Z,28.80
2023-02-05T00:53:40.303Z,28.13
2023-02-05T00:56:12.099Z,28.35
2023-02-05T00:58:39.359Z,29.35
2023-02-05T01:01:06.799Z,28.17
2023-02-05T01:03:34.160Z,29.30
2023-02-05T01:06:03.395Z,28.83
2023-02-05T01:08:30.846Z,29.35
2023-02-05T01:10:59.173Z,29.80
2023-02-05T01:13:27.095Z,31.05
2023-02-05T01:15:58.437Z,32.58
2023-02-05T01:18:29.298Z,29.15
2023-02-05T01:20:56.836Z,30.95
2023-02-05T01:23:24.019Z,30.23
2023-02-05T01:25:51.594Z,29.80
2023-02-05T01:28:19.405Z,32.65
2023-02-05T01:30:51.187Z,29.70
2023-02-05T01:33:19.679Z,32.47
2023-02-05T01:35:46.896Z,31.75
2023-02-05T01:38:17.230Z,31.38
2023-02-05T01:40:44.661Z,31.95
2023-02-05T01:43:16.501Z,33.25
2023-02-05T01:46:02.462Z,32.53
2023-02-05T01:48:35.720Z,32.13
2023-02-05T01:51:06.500Z,31.63
2023-02-05T01:53:35.599Z,32.40
2023-02-05T01:56:08.900Z,30.05
2023-02-05T01:58:51.755Z,31.48
2023-02-05T02:01:18.866Z,31.50
2023-02-05T02:03:47.006Z,31.08
2023-02-05T02:06:15.126Z,29.83
2023-02-05T02:08:42.689Z,27.80
2023-02-05T02:11:12.927Z,28.90
2023-02-05T02:13:41.579Z,29.23
2023-02-05T02:16:10.000Z,29.52
2023-02-05T02:18:38.869Z,28.20
2023-02-05T02:21:27.131Z,27.02
2023-02-05T02:24:18.886Z,26.60
2023-02-05T02:27:17.364Z,27.50
2023-02-05T02:29:57.578Z,26.67
2023-02-05T02:32:58.267Z,28.40
2023-02-05T02:35:46.337Z,27.10
2023-02-05T02:38:34.693Z,27.13
2023-02-05T02:41:36.084Z,27.25
2023-02-05T02:44:12.019Z,28.55
2023-02-05T02:46:41.533Z,31.92
2023-02-05T02:49:17.193Z,29.00
2023-02-05T02:51:45.608Z,29.13
2023-02-05T02:54:17.696Z,30.50
2023-02-05T02:56:51.553Z,30.30
2023-02-05T02:59:22.269Z,30.52
2023-02-05T03:01:54.901Z,30.75
2023-02-05T03:04:34.390Z,30.92
2023-02-05T03:07:12.442Z,30.17
2023-02-05T03:09:52.184Z,31.35
2023-02-05T03:12:22.562Z,29.33
2023-02-05T03:14:50.819Z,28.90
2023-02-05T03:17:19.870Z,30.08
2023-02-05T03:19:57.836Z,29.00
2023-02-05T03:22:26.033Z,29.10
2023-02-05T03:24:53.372Z,26.45
2023-02-05T03:27:22.776Z,29.55
2023-02-05T03:29:50.899Z,28.02
2023-02-05T03:32:39.812Z,28.85
2023-02-05T03:35:11.027Z,27.23
2023-02-05T03:38:22.440Z,28.10
2023-02-05T03:41:00.270Z,26.30
2023-02-05T03:43:54.758Z,24.65
2023-02-05T03:46:30.841Z,24.20
2023-02-05T03:49:15.145Z,23.23
2023-02-05T03:51:46.001Z,22.88
2023-02-05T03:54:35.918Z,24.67
2023-02-05T03:57:28.913Z,24.38
2023-02-05T03:59:59.542Z,22.13
2023-02-05T04:02:29.033Z,21.17
2023-02-05T04:04:57.105Z,21.67
2023-02-05T04:07:25.055Z,20.00
2023-02-05T04:09:55.331Z,18.20
2023-02-05T04:12:23.109Z,16.80
2023-02-05T04:14:50.225Z,17.25
2023-02-05T04:17:17.743Z,16.08
2023-02-05T04:19:46.093Z,16.52
2023-02-05T04:22:14.966Z,15.70
2023-02-05T04:24:45.011Z,15.05
2023-02-05T04:27:12.543Z,13.80
2023-02-05T04:29:40.245Z,12.50
2023-02-05T04:32:07.413Z,14.13
2023-02-05T04:34:35.431Z,12.82
2023-02-05T04:37:03.217Z,12.45
2023-02-05T04:39:31.084Z,12.23
2023-02-05T04:42:00.542Z,10.60
2023-02-05T04:44:28.733Z,10.32
2023-02-05T04:46:58.094Z,11.05
2023-02-05T04:49:26.786Z,9.82
2023-02-05T04:51:54.024Z,10.00
2023-02-05T04:54:20.937Z,9.73
2023-02-05T04:56:48.217Z,9.60
2023-02-05T04:59:16.117Z,9.40
2023-02-05T05:01:44.979Z,10.30
2023-02-05T05:04:11.992Z,9.60
2023-02-05T05:06:38.888Z,9.43
2023-02-05T05:09:06.292Z,9.02
2023-02-05T05:11:34.237Z,9.98
2023-02-05T05:14:01.750Z,10.27
2023-02-05T05:16:29.054Z,10.25
2023-02-05T05:18:56.000Z,10.55
2023-02-05T05:21:22.970Z,10.57
2023-02-05T05:23:49.959Z,9.88
2023-02-05T05:26:17.021Z,9.85
2023-02-05T05:28:43.991Z,9.48
2023-02-05T05:31:17.244Z,9.75
2023-02-05T05:33:44.514Z,9.43
2023-02-05T05:36:12.307Z,9.77
2023-02-05T05:38:39.809Z,10.32
2023-02-05T05:41:26.343Z,9.88
2023-02-05T05:43:55.254Z,10.20
2023-02-05T05:46:26.382Z,9.60
2023-02-05T05:48:56.543Z,9.55
2023-02-05T05:51:25.600Z,8.73
2023-02-05T05:53:55.576Z,9.38
2023-02-05T05:56:24.448Z,8.32
2023-02-05T05:58:55.723Z,8.68
2023-02-05T06:01:23.350Z,8.48
2023-02-05T06:03:51.550Z,10.00
2023-02-05T06:06:18.852Z,8.57
2023-02-05T06:08:45.833Z,7.88
2023-02-05T06:11:13.899Z,9.38
2023-02-05T06:13:41.851Z,8.93
2023-02-05T06:16:09.056Z,8.75
2023-02-05T06:18:36.175Z,9.32
2023-02-05T06:21:05.768Z,9.38
2023-02-05T06:23:34.423Z,9.25
2023-02-05T06:26:02.784Z,10.82
2023-02-05T06:28:30.360Z,10.77
2023-02-05T06:31:00.094Z,10.95
2023-02-05T06:33:27.365Z,11.75
2023-02-05T06:35:54.291Z,12.88
2023-02-05T06:38:21.459Z,11.93
2023-02-05T06:40:49.064Z,10.82
2023-02-05T06:43:17.104Z,12.13
2023-02-05T06:45:44.077Z,12.38
2023-02-05T06:48:13.128Z,13.00
2023-02-05T06:50:40.942Z,14.25
2023-02-05T06:53:09.585Z,14.98
2023-02-05T06:55:40.561Z,17.00
2023-02-05T06:58:09.826Z,16.90
2023-02-05T07:00:38.772Z,16.35
2023-02-05T07:03:11.903Z,16.67
2023-02-05T07:05:39.160Z,16.05
2023-02-05T07:08:06.998Z,15.88
2023-02-05T07:10:34.316Z,16.38
2023-02-05T07:13:01.377Z,17.13
2023-02-05T07:15:28.548Z,16.33
2023-02-05T07:17:56.205Z,16.50
2023-02-05T07:20:23.843Z,16.05
2023-02-05T07:22:51.797Z,16.88
2023-02-05T07:25:19.374Z,17.17
2023-02-05T07:27:47.516Z,16.10
2023-02-05T07:30:16.410Z,16.35
2023-02-05T07:32:45.888Z,16.75
2023-02-05T07:35:12.817Z,16.10
2023-02-05T07:37:40.054Z,15.77
2023-02-05T07:40:07.681Z,16.23
2023-02-05T07:42:34.644Z,13.10
2023-02-05T07:45:02.705Z,12.27
2023-02-05T07:47:29.749Z,8.82
2023-02-05T07:49:56.734Z,6.97
2023-02-05T07:52:23.658Z,6.68
2023-02-05T07:54:50.754Z,5.68
2023-02-05T07:57:18.612Z,5.35
2023-02-05T07:59:48.430Z,3.22
2023-02-05T08:05:33.616Z,2.33
2023-02-05T08:08:01.136Z,1.55
2023-02-05T08:10:29.523Z,1.35
2023-02-05T08:12:59.520Z,0.88
2023-02-05T08:15:28.454Z,1.88
2023-02-05T08:17:55.593Z,1.40
2023-02-05T08:20:22.654Z,1.02
2023-02-05T08:22:49.774Z,0.93
2023-02-05T08:25:23.080Z,1.02
2023-02-05T08:27:50.367Z,0.95
2023-02-05T08:33:02.449Z,1.00
2023-02-05T08:35:29.573Z,1.25
2023-02-05T08:37:58.292Z,0.75
2023-02-05T08:40:25.763Z,0.98
2023-02-05T08:42:58.836Z,1.35
2023-02-05T08:45:27.776Z,1.15
2023-02-05T08:47:56.026Z,1.10
2023-02-05T08:50:25.730Z,0.98
2023-02-05T08:52:53.466Z,1.45
2023-02-05T08:55:21.724Z,1.38
2023-02-05T08:57:49.469Z,1.15
2023-02-05T09:00:16.722Z,1.33
2023-02-05T09:02:45.084Z,0.47
2023-02-05T09:05:12.653Z,0.40
2023-02-05T09:07:41.268Z,1.02
2023-02-05T09:10:13.575Z,0.70
2023-02-05T09:12:41.402Z,0.80
2023-02-05T09:15:12.228Z,0.90
2023-02-05T09:17:40.345Z,0.80
2023-02-05T09:20:08.386Z,0.90
2023-02-05T09:22:38.888Z,0.85
2023-02-05T09:25:07.436Z,0.90
2023-02-05T09:27:34.829Z,0.88
2023-02-05T09:30:04.174Z,0.80
2023-02-05T09:32:31.195Z,1.20
2023-02-05T09:34:58.427Z,1.20
2023-02-05T09:37:25.372Z,1.20
2023-02-05T09:40:19.471Z,1.35
2023-02-05T09:43:00.880Z,1.30
2023-02-05T09:45:52.340Z,1.60
2023-02-05T09:48:40.648Z,1.50
2023-02-05T09:51:11.449Z,1.90
2023-02-05T09:53:44.148Z,1.40
2023-02-05T09:56:12.529Z,1.98
2023-02-05T09:58:47.945Z,1.42
2023-02-05T10:01:42.976Z,2.25
2023-02-05T10:04:10.169Z,1.13
2023-02-05T10:06:53.137Z,2.65
2023-02-05T10:09:58.033Z,1.13
2023-02-05T10:13:03.018Z,1.52
2023-02-05T10:15:50.356Z,1.40
2023-02-05T10:18:41.781Z,1.58
2023-02-05T10:21:31.059Z,2.85
2023-02-05T10:24:13.355Z,1.83
2023-02-05T10:26:47.152Z,1.42
2023-02-05T10:29:35.359Z,1.83
2023-02-05T10:32:22.806Z,2.33
2023-02-05T10:34:54.170Z,2.20
2023-02-05T10:37:52.874Z,2.20
2023-02-05T10:40:28.641Z,2.50
2023-02-05T10:43:06.240Z,2.05
2023-02-05T10:45:34.054Z,3.15
2023-02-05T10:48:22.033Z,2.90
2023-02-05T10:50:56.339Z,2.05
2023-02-05T10:53:25.437Z,2.47
2023-02-05T10:55:52.915Z,2.17
2023-02-05T10:58:38.013Z,2.65
2023-02-05T11:01:28.261Z,3.15
2023-02-05T11:04:07.025Z,3.00
2023-02-05T11:06:41.168Z,3.50
2023-02-05T11:09:26.783Z,2.67
2023-02-05T11:11:58.019Z,2.97
2023-02-05T11:14:40.380Z,2.37
2023-02-05T11:20:04.399Z,2.50
2023-02-05T11:22:42.138Z,2.95
2023-02-05T11:25:26.461Z,2.90
2023-02-05T11:27:57.659Z,2.60
2023-02-05T11:30:52.890Z,2.20
2023-02-05T11:33:25.526Z,3.25
2023-02-05T11:36:08.460Z,3.00
2023-02-05T11:38:50.409Z,2.70
2023-02-05T11:41:52.004Z,4.53
2023-02-05T11:44:21.369Z,3.33
2023-02-05T11:46:48.839Z,3.10
2023-02-05T11:49:22.322Z,2.85
2023-02-05T11:51:54.891Z,3.13
2023-02-05T11:54:32.636Z,3.17
2023-02-05T11:57:18.454Z,2.67
2023-02-05T11:59:56.381Z,2.90
2023-02-05T12:02:33.635Z,3.40
2023-02-05T12:05:00.828Z,3.47
2023-02-05T12:07:35.506Z,3.33
2023-02-05T12:10:02.703Z,2.97
2023-02-05T12:13:01.384Z,3.47
2023-02-05T12:15:50.857Z,3.47
2023-02-05T12:18:33.899Z,2.25
2023-02-05T12:21:32.768Z,4.15
2023-02-05T12:24:21.009Z,3.47
2023-02-05T12:26:53.316Z,3.00
2023-02-05T12:29:50.037Z,2.95
2023-02-05T12:32:45.746Z,3.60
2023-02-05T12:35:23.170Z,3.35
2023-02-05T12:38:09.052Z,3.38
2023-02-05T12:40:36.124Z,2.72
2023-02-05T12:43:27.851Z,2.58
2023-02-05T12:46:03.800Z,2.67
2023-02-05T12:48:31.216Z,3.33
2023-02-05T12:51:16.685Z,3.03
2023-02-05T12:54:09.605Z,2.38
2023-02-05T12:56:53.076Z,2.90
2023-02-05T12:59:37.493Z,3.72
2023-02-05T13:02:19.824Z,2.83
2023-02-05T13:07:38.584Z,3.22
2023-02-05T13:10:06.943Z,4.30
2023-02-05T13:12:41.341Z,2.40
2023-02-05T13:15:17.834Z,2.58
2023-02-05T13:18:09.111Z,2.63
2023-02-05T13:21:08.713Z,2.97
2023-02-05T13:23:56.931Z,3.38
2023-02-05T13:26:51.048Z,2.60
2023-02-05T13:29:20.467Z,2.95
2023-02-05T13:31:58.330Z,3.70
2023-02-05T13:34:29.977Z,3.22
2023-02-05T13:37:27.812Z,3.00
2023-02-05T13:40:29.767Z,3.03
2023-02-05T13:43:07.375Z,3.78
2023-02-05T13:46:02.656Z,3.17
2023-02-05T13:48:55.374Z,2.80
2023-02-05T13:51:48.659Z,3.42
2023-02-05T13:54:46.772Z,3.25
2023-02-05T13:57:46.525Z,3.22
2023-02-05T14:00:16.529Z,3.75
2023-02-05T14:02:48.282Z,2.30
2023-02-05T14:05:27.704Z,3.50
2023-02-05T14:08:02.000Z,2.65
2023-02-05T14:10:36.525Z,3.47
2023-02-05T14:13:26.512Z,4.53
2023-02-05T14:15:54.634Z,2.97
2023-02-05T14:18:43.521Z,3.33
2023-02-05T14:21:29.910Z,2.92
2023-02-05T14:24:37.997Z,3.05
2023-02-05T14:27:40.527Z,2.97
2023-02-05T14:30:38.176Z,2.78
2023-02-05T14:33:32.351Z,3.50
2023-02-05T14:36:22.960Z,2.85
2023-02-05T14:39:02.288Z,3.75
2023-02-05T14:41:42.329Z,3.17
2023-02-05T14:44:32.145Z,2.33
2023-02-05T14:47:17.103Z,2.42
2023-02-05T14:49:47.355Z,2.65
2023-02-05T14:52:25.681Z,2.85
2023-02-05T14:55:05.993Z,2.88
2023-02-05T14:57:51.286Z,2.70
2023-02-05T15:00:39.941Z,2.67
2023-02-05T15:03:13.741Z,2.22
2023-02-05T15:05:47.236Z,2.95
2023-02-05T15:08:35.161Z,4.03
2023-02-05T15:11:05.455Z,2.20
2023-02-05T15:13:34.926Z,2.75
2023-02-05T15:16:19.952Z,2.78
2023-02-05T15:18:54.225Z,2.80
2023-02-05T15:21:35.834Z,2.50
2023-02-05T15:24:13.886Z,2.13
2023-02-05T15:27:05.153Z,3.67
2023-02-05T15:29:40.584Z,3.40
2023-02-05T15:32:19.296Z,3.35
2023-02-05T15:34:53.457Z,2.97
2023-02-05T15:37:37.502Z,2.15
2023-02-05T15:40:28.050Z,2.85
2023-02-05T15:42:59.767Z,2.63
2023-02-05T15:45:35.401Z,2.60
2023-02-05T15:48:12.271Z,2.92
2023-02-05T15:51:01.660Z,2.85
2023-02-05T15:53:39.624Z,2.17
2023-02-05T15:56:11.044Z,2.65
2023-02-05T15:58:40.790Z,2.43
2023-02-05T16:01:07.967Z,3.17
2023-02-05T16:03:38.897Z,2.85
2023-02-05T16:06:07.176Z,2.50
2023-02-05T16:08:36.546Z,2.67
2023-02-05T16:11:06.252Z,2.20
2023-02-05T16:13:35.826Z,2.25
2023-02-05T16:16:25.547Z,3.13
2023-02-05T16:18:58.261Z,3.03
2023-02-05T16:21:37.858Z,2.72
2023-02-05T16:24:15.157Z,2.92
2023-02-05T16:27:09.689Z,2.10
2023-02-05T16:29:53.410Z,2.42
2023-02-05T16:32:34.180Z,2.63
2023-02-05T16:35:04.780Z,2.65
2023-02-05T16:37:32.657Z,2.90
2023-02-05T16:40:06.260Z,3.33
2023-02-05T16:42:43.314Z,2.25
2023-02-05T16:45:13.371Z,2.80
2023-02-05T16:47:40.843Z,2.88
2023-02-05T16:50:41.096Z,3.30
2023-02-05T16:53:29.480Z,2.95
2023-02-05T16:56:18.843Z,2.40
2023-02-05T16:58:48.842Z,2.97
2023-02-05T17:01:30.308Z,3.28
2023-02-05T17:03:57.479Z,2.97
2023-02-05T17:06:32.526Z,2.78
2023-02-05T17:09:00.367Z,3.55
2023-02-05T17:11:42.484Z,3.10
2023-02-05T17:14:21.086Z,4.72
2023-02-05T17:17:16.128Z,2.60
2023-02-05T17:19:43.437Z,3.22
2023-02-05T17:22:18.150Z,3.50
2023-02-05T17:24:47.227Z,3.25
2023-02-05T17:27:32.690Z,2.70
2023-02-05T17:30:00.250Z,3.65
2023-02-05T17:32:28.023Z,3.22
2023-02-05T17:34:55.437Z,3.55
2023-02-05T17:37:22.483Z,3.75
2023-02-05T17:39:51.845Z,4.20
2023-02-05T17:42:25.310Z,3.33
2023-02-05T17:44:53.878Z,3.67
2023-02-05T17:47:21.154Z,3.55
2023-02-05T17:49:48.331Z,3.17
2023-02-05T17:52:15.557Z,4.10
2023-02-05T17:54:43.220Z,4.82
2023-02-05T17:57:18.821Z,2.95
2023-02-05T17:59:46.743Z,3.10
2023-02-05T18:02:14.710Z,3.55
2023-02-05T18:04:45.319Z,4.38
2023-02-05T18:07:47.720Z,3.97
2023-02-05T18:10:23.123Z,4.55
2023-02-05T18:12:50.960Z,3.65
2023-02-05T18:15:18.680Z,3.53
2023-02-05T18:17:47.562Z,3.80
2023-02-05T18:20:15.574Z,4.47
2023-02-05T18:22:42.899Z,4.07
2023-02-05T18:25:10.349Z,4.40
2023-02-05T18:27:37.578Z,4.18
2023-02-05T18:30:05.366Z,4.10
2023-02-05T18:32:32.418Z,4.55
2023-02-05T18:34:59.409Z,3.80
2023-02-05T18:37:26.794Z,3.03
2023-02-05T18:39:54.203Z,4.30
2023-02-05T18:42:22.572Z,3.75
2023-02-05T18:44:49.585Z,3.80
2023-02-05T18:47:16.587Z,4.55
2023-02-05T18:49:44.003Z,5.05
2023-02-05T18:52:13.210Z,3.90
2023-02-05T18:54:40.539Z,4.55
2023-02-05T18:57:08.369Z,5.60
2023-02-05T18:59:37.049Z,4.70
2023-02-05T19:02:04.172Z,5.13
2023-02-05T19:04:33.108Z,4.95
2023-02-05T19:07:00.182Z,6.18
2023-02-05T19:09:27.669Z,4.88
2023-02-05T19:11:56.077Z,4.05
2023-02-05T19:14:25.365Z,3.75
2023-02-05T19:16:53.066Z,5.03
2023-02-05T19:19:23.519Z,3.95
2023-02-05T19:21:53.818Z,5.07
2023-02-05T19:24:21.960Z,4.57
2023-02-05T19:26:51.106Z,6.15
2023-02-05T19:29:20.434Z,5.25
2023-02-05T19:31:49.099Z,4.85
2023-02-05T19:34:17.057Z,6.05
2023-02-05T19:36:44.493Z,4.50
2023-02-05T19:39:14.270Z,5.53
2023-02-05T19:41:44.710Z,4.70
2023-02-05T19:44:11.998Z,5.35
2023-02-05T19:46:42.176Z,4.75
2023-02-05T19:49:16.947Z,5.68
2023-02-05T19:51:46.770Z,6.10
2023-02-05T19:54:15.029Z,4.57
2023-02-05T19:56:46.882Z,5.75
2023-02-05T19:59:16.879Z,6.05
2023-02-05T20:01:45.745Z,5.82
2023-02-05T20:04:24.994Z,5.40
2023-02-05T20:06:58.365Z,6.13
2023-02-05T20:09:27.509Z,6.63
2023-02-05T20:11:55.487Z,6.95
2023-02-05T20:14:23.449Z,6.03
2023-02-05T20:16:52.332Z,6.10
2023-02-05T20:19:20.055Z,4.88
2023-02-05T20:21:49.311Z,5.57
2023-02-05T20:24:16.661Z,6.22
2023-02-05T20:26:48.451Z,7.50
2023-02-05T20:29:34.405Z,6.82
2023-02-05T20:32:02.160Z,5.22
2023-02-05T20:34:30.779Z,5.43
2023-02-05T20:37:02.153Z,4.82
2023-02-05T20:39:30.148Z,7.05
2023-02-05T20:41:59.660Z,6.53
2023-02-05T20:44:28.405Z,6.55
2023-02-05T20:46:57.004Z,6.15
2023-02-05T20:49:24.523Z,6.72
2023-02-05T20:51:53.097Z,6.75
2023-02-05T20:54:20.845Z,5.07
2023-02-05T20:56:51.346Z,5.35
2023-02-05T20:59:18.455Z,5.40
2023-02-05T21:01:46.551Z,5.72
2023-02-05T21:04:14.313Z,5.50
2023-02-05T21:06:41.662Z,7.22
2023-02-05T21:09:10.487Z,6.78
2023-02-05T21:11:38.285Z,5.97
2023-02-05T21:14:06.127Z,6.28
2023-02-05T21:16:35.334Z,6.90
2023-02-05T21:19:05.143Z,6.38
2023-02-05T21:21:34.460Z,5.70
2023-02-05T21:24:05.136Z,6.10
2023-02-05T21:26:35.660Z,5.70
2023-02-05T21:29:10.215Z,7.13
2023-02-05T21:31:47.295Z,6.10
2023-02-05T21:34:17.951Z,6.72
2023-02-05T21:36:47.853Z,6.03
2023-02-05T21:39:20.351Z,7.65
2023-02-05T21:41:51.389Z,6.72
2023-02-05T21:44:18.751Z,6.10
2023-02-05T21:46:46.282Z,6.65
2023-02-05T21:49:13.787Z,6.50
2023-02-05T21:51:42.546Z,7.07
2023-02-05T21:54:11.940Z,6.13
2023-02-05T21:56:41.966Z,5.82
2023-02-05T21:59:13.470Z,6.00
2023-02-05T22:01:42.794Z,6.07
2023-02-05T22:04:14.618Z,5.95
2023-02-05T22:06:42.854Z,5.78
2023-02-05T22:09:12.883Z,7.45
2023-02-05T22:11:40.712Z,6.60
2023-02-05T22:14:08.471Z,6.43
2023-02-05T22:16:39.270Z,7.57
2023-02-05T22:19:07.173Z,4.88
2023-02-05T22:21:37.070Z,6.43
2023-02-05T22:24:05.856Z,5.82
2023-02-05T22:26:36.446Z,5.97
2023-02-05T22:29:07.975Z,6.22
2023-02-05T22:31:35.525Z,5.55
2023-02-05T22:34:03.119Z,6.95
2023-02-05T22:36:33.756Z,5.53
2023-02-05T22:39:02.266Z,5.40
2023-02-05T22:41:36.240Z,6.10
2023-02-05T22:44:05.144Z,5.85
2023-02-05T22:46:34.501Z,5.53
2023-02-05T22:49:03.325Z,5.82
2023-02-05T22:51:35.448Z,7.05
2023-02-05T22:54:02.971Z,5.28
2023-02-05T22:56:30.362Z,5.38
2023-02-05T22:58:59.053Z,6.32
2023-02-05T23:01:30.432Z,5.22
2023-02-05T23:03:58.877Z,5.88
2023-02-05T23:06:29.701Z,5.57
2023-02-05T23:09:05.612Z,5.47
2023-02-05T23:11:33.790Z,6.15
2023-02-05T23:14:02.462Z,5.88
2023-02-05T23:16:39.695Z,5.20
2023-02-05T23:19:12.569Z,5.72
2023-02-05T23:21:40.657Z,5.60
2023-02-05T23:24:08.255Z,5.15
2023-02-05T23:26:40.065Z,5.07
2023-02-05T23:29:07.423Z,5.75
2023-02-05T23:31:34.841Z,4.65
2023-02-05T23:34:02.601Z,6.65
2023-02-05T23:36:29.604Z,5.00
2023-02-05T23:38:56.604Z,4.65
2023-02-05T23:41:35.956Z,5.47
2023-02-05T23:44:05.045Z,6.68
2023-02-05T23:46:32.410Z,5.82
2023-02-05T23:48:59.418Z,6.05
2023-02-05T23:51:26.808Z,5.30
2023-02-05T23:53:53.774Z,5.95
2023-02-05T23:56:20.725Z,5.00
2023-02-05T23:58:47.722Z,7.15
